sensor_id;sensor_type;location;lat;lon;timestamp;P1;durP1;ratioP1;P2;durP2;ratioP2
64293;SDS011;50636;45.596;5.258;2022-11-15T00:00:33;25.65;;;15.32;;
64293;SDS011;50636;45.596;5.258;2022-11-15T00:02:59;24.30;;;17.73;;
64293;SDS011;50636;45.596;5.258;2022-11-15T00:05:24;15.68;;;13.27;;
64293;SDS011;50636;45.596;5.258;2022-11-15T00:07:50;20.67;;;14.05;;
64293;SDS011;50636;45.596;5.258;2022-11-15T00:10:16;23.27;;;14.18;;
64293;SDS011;50636;45.596;5.258;2022-11-15T00:12:41;18.08;;;13.77;;
64293;SDS011;50636;45.596;5.258;2022-11-15T00:15:07;20.17;;;13.27;;
64293;SDS011;50636;45.596;5.258;2022-11-15T00:17:33;18.65;;;12.93;;
64293;SDS011;50636;45.596;5.258;2022-11-15T00:19:58;19.25;;;13.77;;
64293;SDS011;50636;45.596;5.258;2022-11-15T00:22:24;17.52;;;13.30;;
64293;SDS011;50636;45.596;5.258;2022-11-15T00:24:49;17.73;;;14.05;;
64293;SDS011;50636;45.596;5.258;2022-11-15T00:27:15;18.00;;;13.18;;
64293;SDS011;50636;45.596;5.258;2022-11-15T00:29:41;19.13;;;15.27;;
64293;SDS011;50636;45.596;5.258;2022-11-15T00:32:09;129.18;;;24.75;;
64293;SDS011;50636;45.596;5.258;2022-11-15T00:34:35;22.77;;;17.98;;
64293;SDS011;50636;45.596;5.258;2022-11-15T00:37:01;21.08;;;17.70;;
64293;SDS011;50636;45.596;5.258;2022-11-15T00:39:26;24.30;;;17.80;;
64293;SDS011;50636;45.596;5.258;2022-11-15T00:41:52;21.02;;;15.95;;
64293;SDS011;50636;45.596;5.258;2022-11-15T00:44:18;22.10;;;17.60;;
64293;SDS011;50636;45.596;5.258;2022-11-15T00:46:43;23.23;;;18.00;;
64293;SDS011;50636;45.596;5.258;2022-11-15T00:49:09;20.50;;;15.68;;
64293;SDS011;50636;45.596;5.258;2022-11-15T00:51:34;19.08;;;14.45;;
64293;SDS011;50636;45.596;5.258;2022-11-15T00:54:00;16.10;;;13.30;;
64293;SDS011;50636;45.596;5.258;2022-11-15T00:56:26;15.10;;;12.68;;
64293;SDS011;50636;45.596;5.258;2022-11-15T00:58:52;18.20;;;12.65;;
64293;SDS011;50636;45.596;5.258;2022-11-15T01:01:18;29.10;;;16.35;;
64293;SDS011;50636;45.596;5.258;2022-11-15T01:03:44;18.08;;;12.98;;
64293;SDS011;50636;45.596;5.258;2022-11-15T01:06:10;21.58;;;16.55;;
64293;SDS011;50636;45.596;5.258;2022-11-15T01:08:37;13.73;;;10.88;;
64293;SDS011;50636;45.596;5.258;2022-11-15T01:11:04;20.33;;;14.43;;
64293;SDS011;50636;45.596;5.258;2022-11-15T01:13:32;20.55;;;15.27;;
64293;SDS011;50636;45.596;5.258;2022-11-15T01:16:05;18.70;;;14.40;;
64293;SDS011;50636;45.596;5.258;2022-11-15T01:18:36;22.20;;;14.55;;
64293;SDS011;50636;45.596;5.258;2022-11-15T01:21:08;20.33;;;14.63;;
64293;SDS011;50636;45.596;5.258;2022-11-15T01:23:36;18.83;;;13.43;;
64293;SDS011;50636;45.596;5.258;2022-11-15T01:26:03;18.30;;;13.40;;
64293;SDS011;50636;45.596;5.258;2022-11-15T01:28:31;17.80;;;12.88;;
64293;SDS011;50636;45.596;5.258;2022-11-15T01:30:59;20.77;;;14.60;;
64293;SDS011;50636;45.596;5.258;2022-11-15T01:33:25;18.73;;;14.20;;
64293;SDS011;50636;45.596;5.258;2022-11-15T01:35:51;18.48;;;13.48;;
64293;SDS011;50636;45.596;5.258;2022-11-15T01:38:17;21.23;;;14.23;;
64293;SDS011;50636;45.596;5.258;2022-11-15T01:40:42;22.58;;;14.00;;
64293;SDS011;50636;45.596;5.258;2022-11-15T01:43:24;14.07;;;12.02;;
64293;SDS011;50636;45.596;5.258;2022-11-15T01:45:55;14.05;;;11.90;;
64293;SDS011;50636;45.596;5.258;2022-11-15T01:48:37;21.00;;;12.68;;
64293;SDS011;50636;45.596;5.258;2022-11-15T01:51:04;19.25;;;12.60;;
64293;SDS011;50636;45.596;5.258;2022-11-15T01:53:35;15.55;;;12.63;;
64293;SDS011;50636;45.596;5.258;2022-11-15T01:56:05;15.57;;;13.30;;
64293;SDS011;50636;45.596;5.258;2022-11-15T01:58:34;23.02;;;14.18;;
64293;SDS011;50636;45.596;5.258;2022-11-15T02:01:01;28.15;;;15.00;;
64293;SDS011;50636;45.596;5.258;2022-11-15T02:03:31;16.60;;;11.93;;
64293;SDS011;50636;45.596;5.258;2022-11-15T02:06:03;12.57;;;10.50;;
64293;SDS011;50636;45.596;5.258;2022-11-15T02:08:30;13.13;;;10.10;;
64293;SDS011;50636;45.596;5.258;2022-11-15T02:10:56;16.52;;;11.32;;
64293;SDS011;50636;45.596;5.258;2022-11-15T02:13:21;20.23;;;11.15;;
64293;SDS011;50636;45.596;5.258;2022-11-15T02:15:53;17.52;;;11.07;;
64293;SDS011;50636;45.596;5.258;2022-11-15T02:18:41;13.95;;;9.00;;
64293;SDS011;50636;45.596;5.258;2022-11-15T02:32:45;10.65;;;7.50;;
64293;SDS011;50636;45.596;5.258;2022-11-15T02:41:20;10.52;;;6.97;;
64293;SDS011;50636;45.596;5.258;2022-11-15T02:44:08;10.30;;;7.53;;
64293;SDS011;50636;45.596;5.258;2022-11-15T02:49:48;8.93;;;6.53;;
64293;SDS011;50636;45.596;5.258;2022-11-15T02:52:23;5.72;;;4.32;;
64293;SDS011;50636;45.596;5.258;2022-11-15T02:54:53;8.52;;;6.35;;
64293;SDS011;50636;45.596;5.258;2022-11-15T03:00:26;6.05;;;4.65;;
64293;SDS011;50636;45.596;5.258;2022-11-15T03:08:17;6.63;;;5.38;;
64293;SDS011;50636;45.596;5.258;2022-11-15T03:13:43;8.32;;;6.13;;
64293;SDS011;50636;45.596;5.258;2022-11-15T03:21:30;7.20;;;5.03;;
64293;SDS011;50636;45.596;5.258;2022-11-15T03:24:00;7.28;;;4.78;;
64293;SDS011;50636;45.596;5.258;2022-11-15T03:26:30;6.00;;;4.57;;
64293;SDS011;50636;45.596;5.258;2022-11-15T03:28:59;17.00;;;4.57;;
64293;SDS011;50636;45.596;5.258;2022-11-15T03:31:30;7.90;;;4.80;;
64293;SDS011;50636;45.596;5.258;2022-11-15T03:34:22;5.45;;;4.32;;
64293;SDS011;50636;45.596;5.258;2022-11-15T03:36:49;5.25;;;3.58;;
64293;SDS011;50636;45.596;5.258;2022-11-15T03:39:17;5.47;;;3.75;;
64293;SDS011;50636;45.596;5.258;2022-11-15T03:47:31;8.68;;;4.47;;
64293;SDS011;50636;45.596;5.258;2022-11-15T03:50:08;10.77;;;4.32;;
64293;SDS011;50636;45.596;5.258;2022-11-15T03:52:37;6.22;;;4.13;;
64293;SDS011;50636;45.596;5.258;2022-11-15T03:55:06;8.95;;;4.70;;
64293;SDS011;50636;45.596;5.258;2022-11-15T03:57:34;8.57;;;5.13;;
64293;SDS011;50636;45.596;5.258;2022-11-15T03:59:59;9.48;;;4.68;;
64293;SDS011;50636;45.596;5.258;2022-11-15T04:02:25;9.32;;;4.50;;
64293;SDS011;50636;45.596;5.258;2022-11-15T04:04:51;5.82;;;4.13;;
64293;SDS011;50636;45.596;5.258;2022-11-15T04:07:16;6.13;;;4.55;;
64293;SDS011;50636;45.596;5.258;2022-11-15T04:09:42;4.00;;;3.60;;
64293;SDS011;50636;45.596;5.258;2022-11-15T04:12:26;6.05;;;4.63;;
64293;SDS011;50636;45.596;5.258;2022-11-15T04:15:01;13.15;;;4.93;;
64293;SDS011;50636;45.596;5.258;2022-11-15T04:22:59;7.88;;;5.50;;
64293;SDS011;50636;45.596;5.258;2022-11-15T04:25:45;10.75;;;5.05;;
64293;SDS011;50636;45.596;5.258;2022-11-15T04:28:14;5.53;;;4.60;;
64293;SDS011;50636;45.596;5.258;2022-11-15T04:30:40;7.13;;;5.53;;
64293;SDS011;50636;45.596;5.258;2022-11-15T04:33:05;6.30;;;5.53;;
64293;SDS011;50636;45.596;5.258;2022-11-15T04:35:31;7.72;;;5.85;;
64293;SDS011;50636;45.596;5.258;2022-11-15T04:37:57;10.07;;;6.13;;
64293;SDS011;50636;45.596;5.258;2022-11-15T04:40:23;14.77;;;6.57;;
64293;SDS011;50636;45.596;5.258;2022-11-15T04:42:49;10.05;;;6.30;;
64293;SDS011;50636;45.596;5.258;2022-11-15T04:45:15;9.75;;;7.70;;
64293;SDS011;50636;45.596;5.258;2022-11-15T04:47:43;7.40;;;5.75;;
64293;SDS011;50636;45.596;5.258;2022-11-15T04:50:10;11.27;;;5.90;;
64293;SDS011;50636;45.596;5.258;2022-11-15T04:52:41;9.98;;;6.80;;
64293;SDS011;50636;45.596;5.258;2022-11-15T04:55:15;7.32;;;5.28;;
64293;SDS011;50636;45.596;5.258;2022-11-15T04:57:40;14.00;;;5.65;;
64293;SDS011;50636;45.596;5.258;2022-11-15T05:00:07;8.98;;;5.72;;
64293;SDS011;50636;45.596;5.258;2022-11-15T05:02:34;10.02;;;6.20;;
64293;SDS011;50636;45.596;5.258;2022-11-15T05:05:21;15.27;;;5.13;;
64293;SDS011;50636;45.596;5.258;2022-11-15T05:07:48;6.78;;;6.07;;
64293;SDS011;50636;45.596;5.258;2022-11-15T05:10:14;9.63;;;5.78;;
64293;SDS011;50636;45.596;5.258;2022-11-15T05:12:40;14.13;;;5.85;;
64293;SDS011;50636;45.596;5.258;2022-11-15T05:15:05;9.15;;;5.43;;
64293;SDS011;50636;45.596;5.258;2022-11-15T05:17:31;8.45;;;5.70;;
64293;SDS011;50636;45.596;5.258;2022-11-15T05:19:57;10.93;;;6.68;;
64293;SDS011;50636;45.596;5.258;2022-11-15T05:22:22;7.18;;;6.20;;
64293;SDS011;50636;45.596;5.258;2022-11-15T05:24:48;11.10;;;6.20;;
64293;SDS011;50636;45.596;5.258;2022-11-15T05:27:14;13.05;;;6.45;;
64293;SDS011;50636;45.596;5.258;2022-11-15T05:29:39;7.85;;;5.95;;
64293;SDS011;50636;45.596;5.258;2022-11-15T05:32:05;6.97;;;4.88;;
64293;SDS011;50636;45.596;5.258;2022-11-15T05:34:31;7.80;;;5.75;;
64293;SDS011;50636;45.596;5.258;2022-11-15T05:36:57;13.10;;;5.57;;
64293;SDS011;50636;45.596;5.258;2022-11-15T05:39:24;11.60;;;5.18;;
64293;SDS011;50636;45.596;5.258;2022-11-15T05:41:52;8.07;;;6.53;;
64293;SDS011;50636;45.596;5.258;2022-11-15T05:44:27;11.93;;;5.95;;
64293;SDS011;50636;45.596;5.258;2022-11-15T05:46:52;12.73;;;6.40;;
64293;SDS011;50636;45.596;5.258;2022-11-15T05:49:22;25.25;;;8.35;;
64293;SDS011;50636;45.596;5.258;2022-11-15T05:51:52;6.82;;;5.60;;
64293;SDS011;50636;45.596;5.258;2022-11-15T05:54:19;13.70;;;6.20;;
64293;SDS011;50636;45.596;5.258;2022-11-15T05:56:46;11.10;;;5.70;;
64293;SDS011;50636;45.596;5.258;2022-11-15T05:59:12;11.52;;;6.25;;
64293;SDS011;50636;45.596;5.258;2022-11-15T06:01:38;12.88;;;5.60;;
64293;SDS011;50636;45.596;5.258;2022-11-15T06:04:04;7.53;;;6.10;;
64293;SDS011;50636;45.596;5.258;2022-11-15T06:06:30;13.98;;;6.38;;
64293;SDS011;50636;45.596;5.258;2022-11-15T06:08:55;11.00;;;7.88;;
64293;SDS011;50636;45.596;5.258;2022-11-15T06:11:21;13.15;;;6.18;;
64293;SDS011;50636;45.596;5.258;2022-11-15T06:13:46;9.38;;;6.40;;
64293;SDS011;50636;45.596;5.258;2022-11-15T06:16:12;8.20;;;6.65;;
64293;SDS011;50636;45.596;5.258;2022-11-15T06:18:38;12.07;;;6.88;;
64293;SDS011;50636;45.596;5.258;2022-11-15T06:21:04;11.55;;;7.10;;
64293;SDS011;50636;45.596;5.258;2022-11-15T06:23:33;13.55;;;6.40;;
64293;SDS011;50636;45.596;5.258;2022-11-15T06:26:00;6.32;;;5.35;;
64293;SDS011;50636;45.596;5.258;2022-11-15T06:28:28;13.63;;;6.05;;
64293;SDS011;50636;45.596;5.258;2022-11-15T06:30:55;11.75;;;6.15;;
64293;SDS011;50636;45.596;5.258;2022-11-15T06:33:22;11.30;;;7.30;;
64293;SDS011;50636;45.596;5.258;2022-11-15T06:35:47;10.13;;;6.60;;
64293;SDS011;50636;45.596;5.258;2022-11-15T06:38:13;13.20;;;7.10;;
64293;SDS011;50636;45.596;5.258;2022-11-15T06:40:39;9.88;;;6.03;;
64293;SDS011;50636;45.596;5.258;2022-11-15T06:43:05;8.60;;;6.88;;
64293;SDS011;50636;45.596;5.258;2022-11-15T06:45:31;10.25;;;6.65;;
64293;SDS011;50636;45.596;5.258;2022-11-15T06:48:00;11.55;;;6.22;;
64293;SDS011;50636;45.596;5.258;2022-11-15T06:50:26;6.75;;;5.78;;
64293;SDS011;50636;45.596;5.258;2022-11-15T06:52:52;8.23;;;5.82;;
64293;SDS011;50636;45.596;5.258;2022-11-15T06:55:17;9.15;;;6.18;;
64293;SDS011;50636;45.596;5.258;2022-11-15T06:57:46;9.88;;;5.80;;
64293;SDS011;50636;45.596;5.258;2022-11-15T07:00:14;18.25;;;7.28;;
64293;SDS011;50636;45.596;5.258;2022-11-15T07:02:40;13.00;;;5.90;;
64293;SDS011;50636;45.596;5.258;2022-11-15T07:05:06;10.60;;;5.80;;
64293;SDS011;50636;45.596;5.258;2022-11-15T07:07:32;18.88;;;6.00;;
64293;SDS011;50636;45.596;5.258;2022-11-15T07:09:57;10.63;;;6.72;;
64293;SDS011;50636;45.596;5.258;2022-11-15T07:12:23;11.98;;;7.82;;
64293;SDS011;50636;45.596;5.258;2022-11-15T07:14:48;24.30;;;8.73;;
64293;SDS011;50636;45.596;5.258;2022-11-15T07:17:14;9.88;;;7.60;;
64293;SDS011;50636;45.596;5.258;2022-11-15T07:19:40;9.00;;;7.32;;
64293;SDS011;50636;45.596;5.258;2022-11-15T07:22:05;20.55;;;7.53;;
64293;SDS011;50636;45.596;5.258;2022-11-15T07:24:31;7.90;;;6.80;;
64293;SDS011;50636;45.596;5.258;2022-11-15T07:26:56;10.98;;;7.07;;
64293;SDS011;50636;45.596;5.258;2022-11-15T07:29:22;17.67;;;6.97;;
64293;SDS011;50636;45.596;5.258;2022-11-15T07:31:48;13.48;;;8.30;;
64293;SDS011;50636;45.596;5.258;2022-11-15T07:34:15;15.10;;;7.63;;
64293;SDS011;50636;45.596;5.258;2022-11-15T07:36:41;12.15;;;8.05;;
64293;SDS011;50636;45.596;5.258;2022-11-15T07:39:07;13.30;;;7.15;;
64293;SDS011;50636;45.596;5.258;2022-11-15T07:41:33;9.55;;;5.90;;
64293;SDS011;50636;45.596;5.258;2022-11-15T07:43:58;7.03;;;6.07;;
64293;SDS011;50636;45.596;5.258;2022-11-15T07:46:24;7.38;;;6.65;;
64293;SDS011;50636;45.596;5.258;2022-11-15T07:48:50;20.50;;;7.20;;
64293;SDS011;50636;45.596;5.258;2022-11-15T07:51:16;11.73;;;7.05;;
64293;SDS011;50636;45.596;5.258;2022-11-15T07:53:42;8.85;;;6.47;;
64293;SDS011;50636;45.596;5.258;2022-11-15T07:56:09;6.75;;;5.47;;
64293;SDS011;50636;45.596;5.258;2022-11-15T07:58:35;7.80;;;6.20;;
64293;SDS011;50636;45.596;5.258;2022-11-15T08:01:05;8.18;;;5.72;;
64293;SDS011;50636;45.596;5.258;2022-11-15T08:03:32;8.48;;;6.32;;
64293;SDS011;50636;45.596;5.258;2022-11-15T08:05:58;11.85;;;6.53;;
64293;SDS011;50636;45.596;5.258;2022-11-15T08:08:24;11.35;;;6.82;;
64293;SDS011;50636;45.596;5.258;2022-11-15T08:10:49;7.82;;;6.88;;
64293;SDS011;50636;45.596;5.258;2022-11-15T08:13:15;10.05;;;7.78;;
64293;SDS011;50636;45.596;5.258;2022-11-15T08:15:41;8.40;;;6.55;;
64293;SDS011;50636;45.596;5.258;2022-11-15T08:18:10;7.55;;;5.93;;
64293;SDS011;50636;45.596;5.258;2022-11-15T08:20:37;5.72;;;3.95;;
64293;SDS011;50636;45.596;5.258;2022-11-15T08:23:03;9.75;;;5.30;;
64293;SDS011;50636;45.596;5.258;2022-11-15T08:25:30;5.90;;;3.92;;
64293;SDS011;50636;45.596;5.258;2022-11-15T08:28:05;8.35;;;3.97;;
64293;SDS011;50636;45.596;5.258;2022-11-15T08:30:36;8.45;;;3.83;;
64293;SDS011;50636;45.596;5.258;2022-11-15T08:33:09;7.70;;;3.90;;
64293;SDS011;50636;45.596;5.258;2022-11-15T08:35:36;7.60;;;3.88;;
64293;SDS011;50636;45.596;5.258;2022-11-15T08:38:01;5.32;;;4.18;;
64293;SDS011;50636;45.596;5.258;2022-11-15T08:40:27;9.80;;;4.53;;
64293;SDS011;50636;45.596;5.258;2022-11-15T08:42:53;7.78;;;4.32;;
64293;SDS011;50636;45.596;5.258;2022-11-15T08:45:19;6.60;;;4.15;;
64293;SDS011;50636;45.596;5.258;2022-11-15T08:47:44;10.40;;;5.72;;
64293;SDS011;50636;45.596;5.258;2022-11-15T08:50:10;11.35;;;6.15;;
64293;SDS011;50636;45.596;5.258;2022-11-15T08:52:35;14.18;;;6.90;;
64293;SDS011;50636;45.596;5.258;2022-11-15T08:55:01;5.93;;;3.90;;
64293;SDS011;50636;45.596;5.258;2022-11-15T08:57:30;9.80;;;4.28;;
64293;SDS011;50636;45.596;5.258;2022-11-15T08:59:56;4.40;;;2.65;;
64293;SDS011;50636;45.596;5.258;2022-11-15T09:02:22;6.65;;;2.65;;
64293;SDS011;50636;45.596;5.258;2022-11-15T09:04:48;6.82;;;3.17;;
64293;SDS011;50636;45.596;5.258;2022-11-15T09:07:14;6.75;;;4.32;;
64293;SDS011;50636;45.596;5.258;2022-11-15T09:09:40;7.43;;;4.72;;
64293;SDS011;50636;45.596;5.258;2022-11-15T09:12:06;10.73;;;4.32;;
64293;SDS011;50636;45.596;5.258;2022-11-15T09:14:32;9.40;;;5.55;;
64293;SDS011;50636;45.596;5.258;2022-11-15T09:16:58;8.18;;;5.32;;
64293;SDS011;50636;45.596;5.258;2022-11-15T09:19:24;10.25;;;4.30;;
64293;SDS011;50636;45.596;5.258;2022-11-15T09:21:50;5.80;;;4.38;;
64293;SDS011;50636;45.596;5.258;2022-11-15T09:24:16;7.05;;;4.30;;
64293;SDS011;50636;45.596;5.258;2022-11-15T09:26:42;12.40;;;4.20;;
64293;SDS011;50636;45.596;5.258;2022-11-15T09:29:08;12.57;;;4.22;;
64293;SDS011;50636;45.596;5.258;2022-11-15T09:31:34;8.07;;;4.00;;
64293;SDS011;50636;45.596;5.258;2022-11-15T09:34:00;6.13;;;5.18;;
64293;SDS011;50636;45.596;5.258;2022-11-15T09:36:26;4.70;;;3.83;;
64293;SDS011;50636;45.596;5.258;2022-11-15T09:38:52;7.53;;;4.50;;
64293;SDS011;50636;45.596;5.258;2022-11-15T09:41:22;11.65;;;6.38;;
64293;SDS011;50636;45.596;5.258;2022-11-15T09:49:31;8.20;;;4.63;;
64293;SDS011;50636;45.596;5.258;2022-11-15T09:51:57;7.13;;;4.47;;
64293;SDS011;50636;45.596;5.258;2022-11-15T09:54:30;8.52;;;4.10;;
64293;SDS011;50636;45.596;5.258;2022-11-15T10:05:06;6.80;;;3.90;;
64293;SDS011;50636;45.596;5.258;2022-11-15T10:07:43;6.18;;;3.30;;
64293;SDS011;50636;45.596;5.258;2022-11-15T10:13:25;6.32;;;4.40;;
64293;SDS011;50636;45.596;5.258;2022-11-15T10:15:56;5.88;;;3.15;;
64293;SDS011;50636;45.596;5.258;2022-11-15T10:18:39;5.88;;;4.00;;
64293;SDS011;50636;45.596;5.258;2022-11-15T10:21:30;10.95;;;4.30;;
64293;SDS011;50636;45.596;5.258;2022-11-15T10:24:12;10.32;;;4.15;;
64293;SDS011;50636;45.596;5.258;2022-11-15T10:26:45;8.18;;;3.35;;
64293;SDS011;50636;45.596;5.258;2022-11-15T10:29:17;3.72;;;2.97;;
64293;SDS011;50636;45.596;5.258;2022-11-15T10:31:44;32.83;;;29.80;;
64293;SDS011;50636;45.596;5.258;2022-11-15T10:34:17;14.93;;;7.95;;
64293;SDS011;50636;45.596;5.258;2022-11-15T10:36:54;16.52;;;5.22;;
64293;SDS011;50636;45.596;5.258;2022-11-15T10:39:21;12.90;;;3.72;;
64293;SDS011;50636;45.596;5.258;2022-11-15T10:41:47;6.68;;;3.85;;
64293;SDS011;50636;45.596;5.258;2022-11-15T10:46:42;4.88;;;3.15;;
64293;SDS011;50636;45.596;5.258;2022-11-15T10:49:18;6.43;;;2.90;;
64293;SDS011;50636;45.596;5.258;2022-11-15T10:51:56;9.57;;;3.47;;
64293;SDS011;50636;45.596;5.258;2022-11-15T10:57:16;7.25;;;3.78;;
64293;SDS011;50636;45.596;5.258;2022-11-15T10:59:48;8.70;;;3.47;;
64293;SDS011;50636;45.596;5.258;2022-11-15T11:02:32;7.40;;;2.97;;
64293;SDS011;50636;45.596;5.258;2022-11-15T11:05:34;5.18;;;2.90;;
64293;SDS011;50636;45.596;5.258;2022-11-15T11:10:56;4.68;;;2.40;;
64293;SDS011;50636;45.596;5.258;2022-11-15T11:13:36;3.17;;;2.15;;
64293;SDS011;50636;45.596;5.258;2022-11-15T11:18:42;3.13;;;2.60;;
64293;SDS011;50636;45.596;5.258;2022-11-15T11:21:24;3.72;;;2.80;;
64293;SDS011;50636;45.596;5.258;2022-11-15T11:27:17;5.60;;;2.42;;
64293;SDS011;50636;45.596;5.258;2022-11-15T11:30:14;7.38;;;3.53;;
64293;SDS011;50636;45.596;5.258;2022-11-15T11:41:42;5.68;;;2.50;;
64293;SDS011;50636;45.596;5.258;2022-11-15T11:44:03;3.47;;;2.58;;
64293;SDS011;50636;45.596;5.258;2022-11-15T11:47:10;6.90;;;4.00;;
64293;SDS011;50636;45.596;5.258;2022-11-15T11:50:11;3.33;;;2.40;;
64293;SDS011;50636;45.596;5.258;2022-11-15T11:52:42;6.50;;;2.95;;
64293;SDS011;50636;45.596;5.258;2022-11-15T12:00:54;7.90;;;2.92;;
64293;SDS011;50636;45.596;5.258;2022-11-15T12:06:05;5.55;;;2.83;;
64293;SDS011;50636;45.596;5.258;2022-11-15T12:08:46;4.85;;;3.03;;
64293;SDS011;50636;45.596;5.258;2022-11-15T12:11:30;7.65;;;3.47;;
64293;SDS011;50636;45.596;5.258;2022-11-15T12:17:07;5.18;;;2.70;;
64293;SDS011;50636;45.596;5.258;2022-11-15T12:19:35;5.78;;;2.90;;
64293;SDS011;50636;45.596;5.258;2022-11-15T12:22:04;9.88;;;3.55;;
64293;SDS011;50636;45.596;5.258;2022-11-15T12:24:41;3.90;;;2.55;;
64293;SDS011;50636;45.596;5.258;2022-11-15T12:29:49;6.80;;;2.85;;
64293;SDS011;50636;45.596;5.258;2022-11-15T12:32:33;7.28;;;2.85;;
64293;SDS011;50636;45.596;5.258;2022-11-15T12:35:03;4.75;;;2.55;;
64293;SDS011;50636;45.596;5.258;2022-11-15T12:40:33;4.88;;;2.38;;
64293;SDS011;50636;45.596;5.258;2022-11-15T12:43:44;4.70;;;1.80;;
64293;SDS011;50636;45.596;5.258;2022-11-15T12:46:05;6.97;;;3.05;;
64293;SDS011;50636;45.596;5.258;2022-11-15T12:51:02;2.90;;;1.90;;
64293;SDS011;50636;45.596;5.258;2022-11-15T12:53:29;2.10;;;1.40;;
64293;SDS011;50636;45.596;5.258;2022-11-15T12:56:18;4.97;;;2.42;;
64293;SDS011;50636;45.596;5.258;2022-11-15T13:04:10;9.65;;;2.83;;
64293;SDS011;50636;45.596;5.258;2022-11-15T13:12:01;4.47;;;2.53;;
64293;SDS011;50636;45.596;5.258;2022-11-15T13:14:38;9.13;;;2.20;;
64293;SDS011;50636;45.596;5.258;2022-11-15T13:19:45;3.40;;;2.42;;
64293;SDS011;50636;45.596;5.258;2022-11-15T13:22:12;7.25;;;2.10;;
64293;SDS011;50636;45.596;5.258;2022-11-15T13:24:57;4.40;;;2.28;;
64293;SDS011;50636;45.596;5.258;2022-11-15T13:27:25;7.43;;;2.50;;
64293;SDS011;50636;45.596;5.258;2022-11-15T13:29:52;5.18;;;2.17;;
64293;SDS011;50636;45.596;5.258;2022-11-15T13:32:18;4.97;;;2.55;;
64293;SDS011;50636;45.596;5.258;2022-11-15T13:34:48;3.60;;;2.28;;
64293;SDS011;50636;45.596;5.258;2022-11-15T13:39:47;7.70;;;2.90;;
64293;SDS011;50636;45.596;5.258;2022-11-15T13:42:18;5.03;;;2.42;;
64293;SDS011;50636;45.596;5.258;2022-11-15T13:44:55;3.33;;;2.20;;
64293;SDS011;50636;45.596;5.258;2022-11-15T13:47:24;7.93;;;5.80;;
64293;SDS011;50636;45.596;5.258;2022-11-15T13:49:52;4.22;;;2.65;;
64293;SDS011;50636;45.596;5.258;2022-11-15T13:52:18;4.05;;;2.30;;
64293;SDS011;50636;45.596;5.258;2022-11-15T13:57:27;4.90;;;2.45;;
64293;SDS011;50636;45.596;5.258;2022-11-15T14:00:03;5.03;;;2.28;;
64293;SDS011;50636;45.596;5.258;2022-11-15T14:02:35;5.20;;;2.03;;
64293;SDS011;50636;45.596;5.258;2022-11-15T14:05:04;6.80;;;2.40;;
64293;SDS011;50636;45.596;5.258;2022-11-15T14:07:57;4.10;;;2.30;;
64293;SDS011;50636;45.596;5.258;2022-11-15T14:10:28;11.13;;;2.58;;
64293;SDS011;50636;45.596;5.258;2022-11-15T14:13:01;8.93;;;4.85;;
64293;SDS011;50636;45.596;5.258;2022-11-15T14:17:54;22.00;;;13.05;;
64293;SDS011;50636;45.596;5.258;2022-11-15T14:22:56;6.97;;;3.08;;
64293;SDS011;50636;45.596;5.258;2022-11-15T14:25:34;11.02;;;3.13;;
64293;SDS011;50636;45.596;5.258;2022-11-15T14:28:08;7.38;;;2.42;;
64293;SDS011;50636;45.596;5.258;2022-11-15T14:30:37;4.68;;;2.90;;
64293;SDS011;50636;45.596;5.258;2022-11-15T14:35:53;4.20;;;2.28;;
64293;SDS011;50636;45.596;5.258;2022-11-15T14:38:21;7.50;;;3.85;;
64293;SDS011;50636;45.596;5.258;2022-11-15T14:40:47;14.45;;;3.10;;
64293;SDS011;50636;45.596;5.258;2022-11-15T14:43:14;8.68;;;2.78;;
64293;SDS011;50636;45.596;5.258;2022-11-15T14:45:40;10.68;;;3.65;;
64293;SDS011;50636;45.596;5.258;2022-11-15T14:48:06;6.07;;;2.60;;
64293;SDS011;50636;45.596;5.258;2022-11-15T14:50:33;7.80;;;3.10;;
64293;SDS011;50636;45.596;5.258;2022-11-15T14:53:00;7.35;;;3.03;;
64293;SDS011;50636;45.596;5.258;2022-11-15T14:55:30;5.82;;;2.95;;
64293;SDS011;50636;45.596;5.258;2022-11-15T15:00:30;11.90;;;3.28;;
64293;SDS011;50636;45.596;5.258;2022-11-15T15:02:56;9.77;;;3.92;;
64293;SDS011;50636;45.596;5.258;2022-11-15T15:05:31;9.88;;;3.80;;
64293;SDS011;50636;45.596;5.258;2022-11-15T15:08:06;7.78;;;3.47;;
64293;SDS011;50636;45.596;5.258;2022-11-15T15:10:43;9.50;;;3.38;;
64293;SDS011;50636;45.596;5.258;2022-11-15T15:13:14;8.82;;;3.25;;
64293;SDS011;50636;45.596;5.258;2022-11-15T15:15:42;13.40;;;3.42;;
64293;SDS011;50636;45.596;5.258;2022-11-15T15:18:08;18.50;;;5.10;;
64293;SDS011;50636;45.596;5.258;2022-11-15T15:20:37;9.35;;;3.47;;
64293;SDS011;50636;45.596;5.258;2022-11-15T15:23:07;13.40;;;4.60;;
64293;SDS011;50636;45.596;5.258;2022-11-15T15:25:40;7.65;;;3.42;;
64293;SDS011;50636;45.596;5.258;2022-11-15T15:28:07;14.98;;;4.65;;
64293;SDS011;50636;45.596;5.258;2022-11-15T15:30:32;11.68;;;5.07;;
64293;SDS011;50636;45.596;5.258;2022-11-15T15:32:58;16.55;;;5.18;;
64293;SDS011;50636;45.596;5.258;2022-11-15T15:35:24;10.00;;;3.97;;
64293;SDS011;50636;45.596;5.258;2022-11-15T15:37:54;18.50;;;5.40;;
64293;SDS011;50636;45.596;5.258;2022-11-15T15:40:21;11.73;;;6.68;;
64293;SDS011;50636;45.596;5.258;2022-11-15T15:42:48;8.82;;;5.00;;
64293;SDS011;50636;45.596;5.258;2022-11-15T15:45:14;9.65;;;5.78;;
64293;SDS011;50636;45.596;5.258;2022-11-15T15:47:41;12.00;;;5.80;;
64293;SDS011;50636;45.596;5.258;2022-11-15T15:52:45;16.35;;;6.70;;
64293;SDS011;50636;45.596;5.258;2022-11-15T15:55:11;7.53;;;4.60;;
64293;SDS011;50636;45.596;5.258;2022-11-15T15:57:36;13.80;;;6.63;;
64293;SDS011;50636;45.596;5.258;2022-11-15T16:00:03;11.05;;;8.02;;
64293;SDS011;50636;45.596;5.258;2022-11-15T16:02:30;16.30;;;9.77;;
64293;SDS011;50636;45.596;5.258;2022-11-15T16:04:55;7.50;;;6.57;;
64293;SDS011;50636;45.596;5.258;2022-11-15T16:07:22;5.85;;;4.45;;
64293;SDS011;50636;45.596;5.258;2022-11-15T16:09:53;7.95;;;5.28;;
64293;SDS011;50636;45.596;5.258;2022-11-15T16:12:25;37.45;;;6.68;;
64293;SDS011;50636;45.596;5.258;2022-11-15T16:14:58;5.97;;;4.03;;
64293;SDS011;50636;45.596;5.258;2022-11-15T16:17:25;7.13;;;3.85;;
64293;SDS011;50636;45.596;5.258;2022-11-15T16:19:57;6.68;;;4.13;;
64293;SDS011;50636;45.596;5.258;2022-11-15T16:22:22;11.88;;;7.60;;
64293;SDS011;50636;45.596;5.258;2022-11-15T16:24:48;8.60;;;4.90;;
64293;SDS011;50636;45.596;5.258;2022-11-15T16:27:18;8.90;;;6.22;;
64293;SDS011;50636;45.596;5.258;2022-11-15T16:29:46;7.00;;;4.65;;
64293;SDS011;50636;45.596;5.258;2022-11-15T16:32:12;9.75;;;5.57;;
64293;SDS011;50636;45.596;5.258;2022-11-15T16:34:38;7.00;;;5.18;;
64293;SDS011;50636;45.596;5.258;2022-11-15T16:37:04;6.65;;;5.38;;
64293;SDS011;50636;45.596;5.258;2022-11-15T16:39:31;24.33;;;4.93;;
64293;SDS011;50636;45.596;5.258;2022-11-15T16:41:57;14.32;;;12.63;;
64293;SDS011;50636;45.596;5.258;2022-11-15T16:44:24;18.58;;;11.88;;
64293;SDS011;50636;45.596;5.258;2022-11-15T16:46:50;12.05;;;6.20;;
64293;SDS011;50636;45.596;5.258;2022-11-15T16:49:16;8.73;;;6.13;;
64293;SDS011;50636;45.596;5.258;2022-11-15T16:51:47;12.90;;;7.10;;
64293;SDS011;50636;45.596;5.258;2022-11-15T16:54:14;11.68;;;6.10;;
64293;SDS011;50636;45.596;5.258;2022-11-15T16:56:40;7.45;;;4.78;;
64293;SDS011;50636;45.596;5.258;2022-11-15T16:59:08;12.85;;;6.82;;
64293;SDS011;50636;45.596;5.258;2022-11-15T17:01:38;20.45;;;7.93;;
64293;SDS011;50636;45.596;5.258;2022-11-15T17:04:13;17.35;;;6.95;;
64293;SDS011;50636;45.596;5.258;2022-11-15T17:06:41;8.90;;;5.85;;
64293;SDS011;50636;45.596;5.258;2022-11-15T17:09:18;13.82;;;5.60;;
64293;SDS011;50636;45.596;5.258;2022-11-15T17:11:47;8.68;;;5.25;;